METAR Data
IDs: Format: Raw Decoded Include TAF

Data at: 1355 UTC 13 Dec 2019

PTYA 131353Z 07009KT 12SM FEW016 SCT300 28/25 A2988 RMK SLP118 T02830251